Latest Weather Observations for Edinburgh

IDS60901

Issued at 2:51 pm CDT Saturday 7 March 2015 (issued every 10 minutes, with the page automatically refreshed every 10 minutes)

About weather observations | Map of Adelaide area stations | Latest observations for Adelaide area | Other Formats
Station Details ID: 023083 Name: EDINBURGH RAAF Lat: -34.71 Lon: 138.62 Height: 16.54 m
Data from the previous 72 hours. | See also: Recent months at Edinburgh
Date/Time
CDT
Tmp

°C
App
Tmp
°C
Dew
Point
°C
Rel
Hum
%
Delta-T

°C
Wind Press
QNH
hPa
Press
MSL
hPa
Rain
since
9 am
mm
Dir
 
Spd
km/h
Gust
km/h
Spd
kts
Gust
kts
07/02:30pm 21.4 18.3 12.3 56 5.1 SW 20 32 11 17 1014.7 1014.6 0.0
07/02:00pm 21.5 17.8 11.5 53 5.6 WSW 22 35 12 19 1014.9 1014.8 0.0
07/01:30pm 21.8 18.0 11.2 51 5.9 WSW 22 30 12 16 1015.1 1015.0 0.0
07/01:00pm 21.4 18.1 11.7 54 5.4 WSW 20 28 11 15 1015.4 1015.3 0.0
07/12:30pm 21.2 18.1 12.3 57 5.0 WSW 20 28 11 15 1015.5 1015.4 0.0
07/12:00pm 21.4 18.8 12.0 55 5.3 WSW 17 26 9 14 1015.7 1015.6 0.0
07/11:30am 21.1 19.4 12.3 57 4.9 WSW 13 24 7 13 1016.1 1016.0 0.0
07/11:00am 20.4 18.6 12.1 59 4.6 WSW 13 19 7 10 1016.4 1016.3 0.0
07/10:30am 20.1 18.7 12.3 61 4.4 WNW 11 19 6 10 1016.5 1016.4 0.0
07/10:00am 19.2 18.4 11.7 62 4.1 WNW 7 11 4 6 1016.4 1016.3 0.0
07/09:30am 18.6 18.1 11.9 65 3.7 NNW 6 9 3 5 1016.3 1016.2 0.0
07/09:00am 18.1 17.2 11.4 65 3.6 NNE 7 9 4 5 1016.3 1016.2 0.0
07/08:30am 17.8 18.3 11.6 67 3.4 CALM 0 4 0 2 1016.1 1016.0 0.0
07/08:00am 17.4 16.8 11.7 69 3.1 SE 6 7 3 4 1016.0 1015.9 0.0
07/07:30am 16.7 17.1 11.4 71 2.9 CALM 0 4 0 2 1015.6 1015.5 0.0
07/07:00am 16.5 16.1 11.2 71 2.9 W 4 7 2 4 1015.4 1015.3 0.0
07/06:30am 16.8 16.1 11.3 70 3.0 SSW 6 7 3 4 1015.0 1014.9 0.0
07/06:00am 16.9 16.2 11.4 70 3.0 SW 6 7 3 4 1015.1 1015.0 0.0
07/05:30am 17.0 16.3 11.3 69 3.1 SSE 6 7 3 4 1014.8 1014.7 0.0
07/05:00am 16.9 16.2 11.4 70 3.0 S 6 7 3 4 1015.0 1014.9 0.0
07/04:30am 16.3 15.4 10.8 70 2.9 SSW 6 7 3 4 1015.0 1014.9 0.0
07/04:00am 16.4 15.6 10.9 70 2.9 SSW 6 7 3 4 1015.1 1015.0 0.0
07/03:30am 16.9 16.2 11.4 70 3.0 SSE 6 11 3 6 1014.9 1014.8 0.0
07/03:00am 17.2 16.0 11.5 69 3.1 S 9 13 5 7 1015.1 1015.0 0.0
07/02:30am 17.5 16.2 11.3 67 3.4 SSW 9 13 5 7 1015.6 1015.5 0.0
07/02:00am 17.4 16.5 11.2 67 3.4 SSW 7 11 4 6 1016.2 1016.1 0.0
07/01:30am 17.6 16.3 11.4 67 3.4 S 9 15 5 8 1016.1 1016.0 0.0
07/01:00am 17.8 15.8 11.4 66 3.5 S 13 17 7 9 1016.0 1015.9 0.0
07/12:30am 18.1 15.3 11.4 65 3.6 S 17 20 9 11 1016.4 1016.3 0.0
07/12:00am 18.4 16.5 11.9 66 3.6 SSW 13 17 7 9 1016.5 1016.4 0.0
 
Date/Time
CDT
Tmp

°C
App
Tmp
°C
Dew
Point
°C
Rel
Hum
%
Delta-T

°C
Wind Press
QNH
hPa
Press
MSL
hPa
Rain
since
9 am
mm
Dir
 
Spd
km/h
Gust
km/h
Spd
kts
Gust
kts
06/11:30pm 17.9 17.1 12.8 72 2.8 SW 9 11 5 6 1016.8 1016.7 0.0
06/11:00pm 16.5 15.5 12.3 76 2.3 SW 9 11 5 6 1016.8 1016.7 0.0
06/10:30pm 17.0 15.6 12.3 74 2.6 SSW 11 13 6 7 1016.7 1016.6 0.0
06/10:00pm 17.8 16.2 12.7 72 2.8 SSW 13 17 7 9 1016.7 1016.6 0.0
06/09:30pm 18.1 16.0 12.5 70 3.1 SSW 15 17 8 9 1016.5 1016.4 0.0
06/09:00pm 18.3 15.8 12.3 68 3.3 SSW 17 22 9 12 1016.4 1016.3 0.0
06/08:30pm 18.5 15.8 11.8 65 3.7 SSW 17 22 9 12 1016.3 1016.2 0.0
06/08:00pm 18.7 15.5 11.8 64 3.8 SSW 20 28 11 15 1016.0 1015.9 0.0
06/07:30pm 19.2 14.8 11.7 62 4.1 SW 26 33 14 18 1016.1 1016.0 0.0
06/07:00pm 20.0 15.2 11.7 59 4.6 SW 28 35 15 19 1016.1 1016.0 0.0
06/06:30pm 20.7 15.4 11.3 55 5.2 SW 30 39 16 21 1016.0 1015.9 0.0
06/06:00pm 21.3 16.0 11.1 52 5.6 SW 30 37 16 20 1015.9 1015.8 0.0
06/05:30pm 21.8 17.4 10.3 48 6.3 SW 24 32 13 17 1015.8 1015.7 0.0
06/05:00pm 23.1 18.6 10.2 44 7.1 SW 24 39 13 21 1015.9 1015.8 0.0
06/04:30pm 22.3 17.3 10.8 48 6.3 SW 28 41 15 22 1015.9 1015.8 0.0
06/04:00pm 22.0 16.8 10.2 47 6.4 WSW 28 35 15 19 1016.1 1016.0 0.0
06/03:30pm 22.4 17.2 10.2 46 6.7 WSW 28 33 15 18 1016.6 1016.5 0.0
06/03:00pm 21.9 17.1 10.4 48 6.3 SW 26 39 14 21 1017.0 1016.9 0.0
06/02:30pm 21.3 15.8 10.5 50 5.9 SW 30 41 16 22 1017.3 1017.2 0.0
06/02:00pm 21.9 16.8 10.7 49 6.2 SW 28 39 15 21 1017.6 1017.5 0.0
06/01:30pm 21.1 15.6 10.6 51 5.7 SW 30 39 16 21 1018.1 1018.0 0.0
06/01:00pm 21.2 16.3 9.8 48 6.1 SW 26 37 14 20 1018.3 1018.2 0.0
06/12:30pm 20.6 16.4 11.2 55 5.2 SW 24 33 13 18 1018.7 1018.6 0.0
06/12:00pm 20.0 15.3 10.7 55 5.0 SW 26 35 14 19 1019.2 1019.1 0.0
06/11:30am 19.1 14.1 10.9 59 4.4 SW 28 37 15 20 1019.5 1019.4 0.0
06/11:00am 18.8 14.1 10.6 59 4.4 SSW 26 33 14 18 1019.7 1019.6 0.0
06/10:30am 18.8 13.8 10.9 60 4.3 SW 28 35 15 19 1019.6 1019.5 0.0
06/10:00am 18.2 13.2 11.0 63 3.9 SW 28 35 15 19 1019.4 1019.3 0.0
06/09:30am 17.8 14.2 10.7 63 3.8 SW 20 28 11 15 1019.4 1019.3 0.0
06/09:00am 17.2 13.2 10.3 64 3.7 SSW 22 30 12 16 1019.5 1019.4 0.0
06/08:30am 16.9 13.2 10.1 64 3.6 SW 20 30 11 16 1019.6 1019.5 0.0
06/08:00am 16.6 12.4 9.8 64 3.6 SSW 22 30 12 16 1019.5 1019.4 0.0
06/07:30am 16.4 12.1 9.3 63 3.7 SW 22 28 12 15 1019.2 1019.1 0.0
06/07:00am 16.1 12.1 9.1 63 3.6 SW 20 26 11 14 1019.3 1019.2 0.0
06/06:30am 16.2 12.3 9.4 64 3.5 SSW 20 26 11 14 1019.2 1019.1 0.0
06/06:00am 16.0 12.2 9.2 64 3.5 SSW 19 24 10 13 1019.1 1019.0 0.0
06/05:30am 15.7 13.1 9.4 66 3.2 SSW 13 17 7 9 1019.1 1019.0 0.0
06/05:00am 15.5 11.7 9.0 65 3.3 SW 19 22 10 12 1019.3 1019.2 0.0
06/04:30am 15.6 12.2 9.3 66 3.2 SW 17 24 9 13 1019.3 1019.2 0.0
06/04:00am 13.7 11.8 7.7 67 3.0 NNW 7 9 4 5 1019.3 1019.2 0.0
06/03:30am 12.8 10.8 7.3 69 2.7 NW 7 9 4 5 1019.5 1019.4 0.0
06/03:00am 13.1 12.4 6.9 66 3.0 CALM 0 0 0 0 1019.9 1019.8 0.0
06/02:30am 13.2 12.5 6.8 65 3.1 CALM 0 0 0 0 1020.5 1020.4 0.0
06/02:00am 13.8 12.0 7.1 64 3.3 SSW 6 7 3 4 1021.0 1020.9 0.0
06/01:30am 14.4 12.4 7.2 62 3.5 S 7 9 4 5 1021.3 1021.2 0.0
06/01:00am 14.5 12.2 7.3 62 3.5 S 9 13 5 7 1021.4 1021.3 0.0
06/12:30am 14.5 12.1 7.1 61 3.6 S 9 13 5 7 1021.5 1021.4 0.0
06/12:00am 14.7 11.9 7.0 60 3.8 S 11 15 6 8 1021.7 1021.6 0.0
 
Date/Time
CDT
Tmp

°C
App
Tmp
°C
Dew
Point
°C
Rel
Hum
%
Delta-T

°C
Wind Press
QNH
hPa
Press
MSL
hPa
Rain
since
9 am
mm
Dir
 
Spd
km/h
Gust
km/h
Spd
kts
Gust
kts
05/11:30pm 15.0 12.2 6.8 58 4.0 S 11 15 6 8 1021.8 1021.7 0.0
05/11:00pm 15.4 12.5 6.7 56 4.2 S 11 17 6 9 1022.1 1022.0 0.0
05/10:30pm 15.9 12.0 6.9 55 4.4 S 17 24 9 13 1022.2 1022.1 0.0
05/10:00pm 16.4 12.0 6.5 52 4.9 S 19 24 10 13 1022.2 1022.1 0.0
05/09:30pm 16.7 12.3 6.5 51 5.0 SSW 19 22 10 12 1021.8 1021.7 0.0
05/09:00pm 17.1 11.9 7.2 52 4.9 SW 24 30 13 16 1021.5 1021.4 0.0
05/08:30pm 17.3 12.1 7.1 51 5.1 SW 24 30 13 16 1021.1 1021.0 0.0
05/08:00pm 17.9 11.4 6.7 48 5.6 SSW 30 37 16 20 1021.1 1021.0 0.0
05/07:30pm 18.8 12.7 6.6 45 6.1 SSW 28 39 15 21 1020.8 1020.7 0.0
05/07:00pm 19.6 12.8 7.0 44 6.4 SSW 32 39 17 21 1020.5 1020.4 0.0
05/06:30pm 20.0 13.1 7.4 44 6.4 SSW 33 46 18 25 1020.4 1020.3 0.0
05/06:00pm 20.5 13.7 7.8 44 6.5 SSW 33 41 18 22 1020.3 1020.2 0.0
05/05:30pm 20.7 13.1 7.7 43 6.7 SW 37 46 20 25 1020.3 1020.2 0.0
05/05:00pm 21.3 14.1 7.5 41 7.1 SSW 35 43 19 23 1020.1 1020.0 0.0
05/04:30pm 21.4 14.6 7.6 41 7.1 SW 33 46 18 25 1020.2 1020.1 0.0
05/04:00pm 21.5 14.6 7.3 40 7.3 SW 33 44 18 24 1020.5 1020.4 0.0
05/03:30pm 21.6 14.3 7.1 39 7.4 SW 35 46 19 25 1020.7 1020.6 0.0
05/03:00pm 21.8 14.3 6.5 37 7.7 SW 35 44 19 24 1021.0 1020.9 0.0
05/02:30pm 21.7 14.4 7.2 39 7.4 SW 35 43 19 23 1021.3 1021.2 0.0
05/02:00pm 21.3 14.6 5.6 36 7.8 WSW 30 37 16 20 1021.5 1021.4 0.0
05/01:46pm 21.8 16.0 6.1 36 7.9 SW 26 43 14 23 1021.5 1021.4 0.0
05/01:30pm 22.5 19.9 4.1 30 8.9 WNW 7 13 4 7 1021.8 1021.7 0.0
05/01:00pm 22.1 18.0 4.6 32 8.6 S 15 28 8 15 1022.2 1022.1 0.0
05/12:30pm 20.6 16.9 4.6 35 7.7 S 13 24 7 13 1022.9 1022.8 0.0
05/12:00pm 20.7 16.9 3.9 33 8.0 SSE 13 20 7 11 1023.2 1023.1 0.0
05/11:30am 19.8 15.2 3.9 35 7.5 SSE 17 24 9 13 1023.4 1023.3 0.0
05/11:00am 18.8 14.3 4.2 38 6.9 SSE 17 22 9 12 1023.3 1023.2 0.0
05/10:30am 19.1 14.2 5.2 40 6.7 SSW 20 32 11 17 1023.5 1023.4 0.0
05/10:00am 17.7 13.4 5.3 44 6.0 SSE 17 22 9 12 1023.1 1023.0 0.0
05/09:30am 17.5 13.0 6.1 47 5.6 SSE 19 24 10 13 1022.8 1022.7 0.0
05/09:00am 16.9 13.0 7.0 52 4.9 S 17 26 9 14 1022.7 1022.6 0.0
05/08:30am 16.4 13.5 8.1 58 4.2 SSE 13 19 7 10 1022.2 1022.1 0.0
05/08:00am 16.3 13.1 8.3 59 4.1 SSE 15 22 8 12 1021.8 1021.7 0.0
05/07:30am 16.1 12.8 8.1 59 4.0 S 15 20 8 11 1021.5 1021.4 0.0
05/07:00am 16.1 13.2 8.1 59 4.0 SSE 13 19 7 10 1021.2 1021.1 0.0
05/06:30am 15.8 13.6 7.8 59 4.0 SSW 9 15 5 8 1020.7 1020.6 0.0
05/06:00am 16.3 13.4 8.0 58 4.2 S 13 20 7 11 1020.4 1020.3 0.0
05/05:30am 16.6 11.7 8.3 58 4.2 S 24 35 13 19 1020.2 1020.1 0.0
05/05:00am 17.0 12.2 8.9 59 4.2 S 24 32 13 17 1019.8 1019.7 0.0
05/04:30am 17.2 12.5 9.4 60 4.1 S 24 32 13 17 1019.6 1019.5 0.0
05/04:00am 17.6 13.0 11.2 66 3.5 S 26 43 14 23 1019.3 1019.2 0.0
05/03:30am 17.9 14.3 11.9 68 3.3 S 22 28 12 15 1019.2 1019.1 0.0
05/03:00am 17.7 12.4 12.4 71 2.9 SSW 32 44 17 24 1018.9 1018.8 0.0
05/02:30am 18.5 14.9 13.1 71 3.0 SSW 24 33 13 18 1019.1 1019.0 0.0
05/02:00am 18.4 13.4 13.3 72 2.9 SSW 32 41 17 22 1019.3 1019.2 0.0
05/01:30am 18.7 13.4 13.1 70 3.2 SW 33 46 18 25 1019.3 1019.2 0.0
05/01:00am 18.4 14.6 13.7 74 2.7 SW 26 35 14 19 1019.2 1019.1 0.0
05/12:30am 19.1 13.7 12.8 67 3.5 SW 33 43 18 23 1019.0 1018.9 0.0
05/12:00am 19.4 14.6 12.9 66 3.7 SW 30 39 16 21 1019.0 1018.9 0.0
 
Date/Time
CDT
Tmp

°C
App
Tmp
°C
Dew
Point
°C
Rel
Hum
%
Delta-T

°C
Wind Press
QNH
hPa
Press
MSL
hPa
Rain
since
9 am
mm
Dir
 
Spd
km/h
Gust
km/h
Spd
kts
Gust
kts
04/11:30pm 19.2 15.6 13.2 68 3.4 SW 24 32 13 17 1018.8 1018.7 0.0
04/11:00pm 19.1 15.0 12.6 66 3.6 SW 26 33 14 18 1019.0 1018.9 0.0
04/10:33pm 18.2 13.0 13.5 74 2.7 SW 33 52 18 28 1019.4 1019.3 0.0
04/10:30pm 17.9 11.5 13.2 74 2.6 SW 39 52 21 28 1019.4 1019.3 0.0
04/10:00pm 19.5 14.4 11.8 61 4.3 WSW 30 41 16 22 1018.9 1018.8 0.0
04/09:30pm 19.3 13.2 11.6 61 4.2 SW 35 48 19 26 1018.8 1018.7 0.0
04/09:00pm 19.5 13.3 11.5 60 4.4 SW 35 44 19 24 1018.3 1018.2 0.0
04/08:30pm 19.6 13.5 11.6 60 4.4 SW 35 44 19 24 1017.8 1017.7 0.0
04/08:00pm 20.0 14.5 11.7 59 4.6 SW 32 41 17 22 1017.4 1017.3 0.0
04/07:30pm 20.0 14.3 11.2 57 4.8 SW 32 39 17 21 1017.5 1017.4 0.0
04/07:00pm 20.4 15.2 11.6 57 4.9 SW 30 41 16 22 1017.1 1017.0 0.0
04/06:30pm 20.8 15.0 10.9 53 5.4 SW 32 41 17 22 1017.0 1016.9 0.0
04/06:00pm 21.7 16.3 10.8 50 6.0 SW 30 39 16 21 1017.0 1016.9 0.0
04/05:30pm 22.3 17.9 11.7 51 5.9 SW 26 33 14 18 1016.9 1016.8 0.0
04/05:00pm 22.3 18.3 11.7 51 5.9 SW 24 33 13 18 1016.9 1016.8 0.0
04/04:30pm 22.3 17.9 10.5 47 6.5 SW 24 32 13 17 1017.1 1017.0 0.0
04/04:00pm 22.5 18.3 9.6 44 7.0 SW 22 32 12 17 1017.1 1017.0 0.0
04/03:30pm 22.1 17.0 9.3 44 6.9 SSW 26 39 14 21 1017.6 1017.5 0.0
04/03:00pm 22.8 17.2 8.9 41 7.4 SW 28 39 15 21 1017.9 1017.8 0.0

Latest Capital City Observations: Canberra | Sydney | Melbourne | Brisbane | Adelaide | Perth | Hobart | Darwin

Other Formats:

Comma delimited format used in spreadsheet applications
http://www.bom.gov.au/fwo/IDS60901/IDS60901.95676.axf

JavaScript Object Notation format (JSON) in row-major order
http://www.bom.gov.au/fwo/IDS60901/IDS60901.95676.json